VAM Template | Jonatha

Virtual Airlines Manager! A new look to your va. By: Jonatha Silva




 METAR ET TAF INFORMATION
METAR FOR LEZL
ADDS - METARS form results

(1156 UTC 18 October 2019)
Data provider http://aviationweather.gov/metar/data/
 
METAR text: LEZL 181130Z 20002KT 9999 BKN034 24/15 Q1019 NOSIG
Conditions at: LEZL (SEVILLA (CIV/MIL, ES) observed 1130 UTC 18 October 2019
Temperature: 24.0°C (75°F)
Dewpoint: 15.0°C (59°F) [RH = 57%]
Pressure (altimeter): 30.09 inches Hg (1019.0 mb)
Winds: from the SSW (200 degrees) at 2 MPH (2 knots; 1.0 m/s)
Visibility: 6 or more miles (10+ km)
Ceiling: 3400 feet AGL
Clouds: broken clouds at 3400 feet AGL
Weather: no significant weather observed at this time

METAR text: LEZL 181100Z 21003KT 140V260 9999 BKN034 22/15 Q1019 NOSIG
Conditions at: LEZL (SEVILLA (CIV/MIL, ES) observed 1100 UTC 18 October 2019
Temperature: 22.0°C (72°F)
Dewpoint: 15.0°C (59°F) [RH = 65%]
Pressure (altimeter): 30.09 inches Hg (1019.0 mb)
Winds: from the SSW (210 degrees) at 3 MPH (3 knots; 1.5 m/s)
Visibility: 6 or more miles (10+ km)
Ceiling: 3400 feet AGL
Clouds: broken clouds at 3400 feet AGL
Weather: no significant weather observed at this time

Forecast for: LEZL (SEVILLA (CIV/MIL, ES)
Text: TAF LEZL 180800Z 1809/1909 24006KT 9999 SCT020 TX26/1815Z TN14/1907Z
Forecast period: 0900 UTC 18 October 2019 to 0900 UTC 19 October 2019
Forecast type: FROM: standard forecast or significant change
Winds: from the WSW (240 degrees) at 7 MPH (6 knots; 3.1 m/s)
Visibility: 6 or more miles 10+ km)
Ceiling: at least 12,000 feet AGL
Clouds: scattered clouds at 2000 feet AGL
Weather: no significant weather forecast for this period

 AÉROPORT DE AÉROPORT

 INFORMATIONS DE PISTE
Piste 09 Longueur de la piste 11024 ft Largeur de la piste 148 ft
Élévation de la piste 83 ft Seuil de la piste déplacés 0 ft Runway heading 90
Piste 27 Longueur de la piste 11024 ft Largeur de la piste 148 ft
Élévation de la piste 111 ft Seuil de la piste déplacés 0 ft Runway heading 270

 AÉROPORT FRÉQUENCES
Type APP Nom APP Féquence 120 MHZ
Type ATIS Nom ATIS Féquence 118.175 MHZ
Type GND Nom GND Féquence 121.7 MHZ
Type TWR Nom TWR Féquence 118.1 MHZ

 SIDA DE NAVIGATION
Type NDB Nom Sevilla Féquence 420 KHZ
Type VOR-DME Nom Sevilla Féquence 113700 KHZ